createdAt,value
2022-07-31T00:00:20.469Z,75.90
2022-07-31T00:02:22.140Z,75.74
2022-07-31T00:04:24.111Z,75.51
2022-07-31T00:06:25.897Z,75.37
2022-07-31T00:08:27.698Z,74.68
2022-07-31T00:10:29.513Z,74.22
2022-07-31T00:12:31.420Z,73.74
2022-07-31T00:14:33.059Z,73.64
2022-07-31T00:16:34.994Z,73.49
2022-07-31T00:18:36.772Z,73.07
2022-07-31T00:20:38.463Z,73.41
2022-07-31T00:22:41.278Z,73.61
2022-07-31T00:24:42.871Z,73.03
2022-07-31T00:26:44.489Z,73.22
2022-07-31T00:28:47.812Z,73.19
2022-07-31T00:30:49.532Z,73.28
2022-07-31T00:32:51.989Z,73.33
2022-07-31T00:34:53.885Z,73.19
2022-07-31T00:36:55.580Z,73.35
2022-07-31T00:38:57.333Z,73.16
2022-07-31T00:40:58.987Z,72.73
2022-07-31T00:43:00.569Z,72.74
2022-07-31T00:45:02.322Z,72.95
2022-07-31T00:47:04.840Z,72.10
2022-07-31T00:49:12.593Z,72.22
2022-07-31T00:51:14.348Z,72.42
2022-07-31T00:53:16.023Z,72.35
2022-07-31T00:55:17.669Z,72.46
2022-07-31T00:57:19.523Z,72.17
2022-07-31T00:59:24.753Z,72.35
2022-07-31T01:01:27.811Z,72.17
2022-07-31T01:03:29.695Z,72.35
2022-07-31T01:05:31.575Z,72.08
2022-07-31T01:07:33.280Z,71.75
2022-07-31T01:09:34.959Z,71.62
2022-07-31T01:11:45.233Z,71.80
2022-07-31T01:13:57.333Z,71.83
2022-07-31T01:16:00.249Z,71.65
2022-07-31T01:18:02.033Z,71.45
2022-07-31T01:20:04.323Z,71.43
2022-07-31T01:22:33.676Z,71.47
2022-07-31T01:25:04.458Z,71.55
2022-07-31T01:27:27.734Z,71.60
2022-07-31T01:29:33.014Z,71.47
2022-07-31T01:31:54.080Z,71.22
2022-07-31T01:34:28.227Z,71.49
2022-07-31T01:36:35.210Z,71.72
2022-07-31T01:38:42.509Z,71.64
2022-07-31T01:40:51.073Z,71.57
2022-07-31T01:42:57.061Z,71.33
2022-07-31T01:45:00.765Z,71.55
2022-07-31T01:47:03.877Z,71.74
2022-07-31T01:49:06.188Z,71.42
2022-07-31T01:51:09.040Z,71.16
2022-07-31T01:53:14.292Z,71.23
2022-07-31T01:55:16.888Z,71.22
2022-07-31T01:57:19.130Z,71.37
2022-07-31T01:59:22.811Z,71.17
2022-07-31T02:01:27.515Z,71.30
2022-07-31T02:03:43.950Z,71.74
2022-07-31T02:05:47.998Z,71.52
2022-07-31T02:07:49.858Z,71.28
2022-07-31T02:09:58.863Z,71.34
2022-07-31T02:12:01.359Z,71.15
2022-07-31T02:14:05.414Z,72.30
2022-07-31T02:16:07.340Z,72.34
2022-07-31T02:18:10.608Z,72.29
2022-07-31T02:20:13.299Z,72.10
2022-07-31T02:22:15.523Z,72.30
2022-07-31T02:24:17.743Z,71.23
2022-07-31T02:26:19.672Z,70.35
2022-07-31T02:28:22.301Z,70.26
2022-07-31T02:30:26.373Z,70.28
2022-07-31T02:32:28.749Z,70.55
2022-07-31T02:34:31.313Z,73.84
2022-07-31T02:36:34.475Z,75.96
2022-07-31T02:38:36.464Z,77.97
2022-07-31T02:40:39.866Z,79.42
2022-07-31T02:42:46.082Z,79.81
2022-07-31T02:44:47.737Z,79.47
2022-07-31T02:46:49.542Z,79.65
2022-07-31T02:48:51.791Z,80.32
2022-07-31T02:50:53.735Z,80.70
2022-07-31T02:52:55.557Z,81.25
2022-07-31T02:54:58.402Z,81.51
2022-07-31T02:57:00.131Z,81.88
2022-07-31T02:59:02.713Z,81.66
2022-07-31T03:01:06.091Z,82.27
2022-07-31T03:03:07.893Z,81.99
2022-07-31T03:05:09.705Z,81.75
2022-07-31T03:07:11.517Z,80.75
2022-07-31T03:09:13.189Z,79.63
2022-07-31T03:11:15.079Z,79.46
2022-07-31T03:13:17.347Z,78.98
2022-07-31T03:15:21.444Z,78.92
2022-07-31T03:17:23.655Z,78.84
2022-07-31T03:19:40.265Z,79.32
2022-07-31T03:21:42.193Z,78.88
2022-07-31T03:23:43.962Z,78.35
2022-07-31T03:25:46.141Z,78.30
2022-07-31T03:27:55.628Z,78.28
2022-07-31T03:29:58.397Z,78.01
2022-07-31T03:32:00.983Z,78.27
2022-07-31T03:34:02.836Z,79.31
2022-07-31T03:36:04.679Z,80.24
2022-07-31T03:38:38.352Z,80.38
2022-07-31T03:40:28.113Z,81.21
2022-07-31T03:42:30.053Z,81.62
2022-07-31T03:44:32.889Z,81.73
2022-07-31T03:46:34.812Z,82.00
2022-07-31T03:48:36.598Z,82.48
2022-07-31T03:50:39.176Z,82.75
2022-07-31T03:52:40.969Z,82.32
2022-07-31T03:54:42.925Z,80.43
2022-07-31T03:56:48.673Z,79.04
2022-07-31T03:58:52.582Z,78.67
2022-07-31T04:00:54.556Z,78.36
2022-07-31T04:02:57.672Z,77.95
2022-07-31T04:04:59.574Z,78.03
2022-07-31T04:07:01.297Z,77.52
2022-07-31T04:09:18.578Z,77.21
2022-07-31T04:11:20.357Z,77.55
2022-07-31T04:13:22.023Z,77.81
2022-07-31T04:15:24.207Z,77.70
2022-07-31T04:17:26.045Z,77.48
2022-07-31T04:19:31.072Z,77.35
2022-07-31T04:21:32.748Z,77.69
2022-07-31T04:23:34.411Z,77.44
2022-07-31T04:25:36.075Z,77.83
2022-07-31T04:27:48.828Z,77.14
2022-07-31T04:29:50.696Z,77.00
2022-07-31T04:31:55.993Z,76.54
2022-07-31T04:33:58.108Z,76.19
2022-07-31T04:35:59.754Z,75.75
2022-07-31T04:38:01.605Z,75.20
2022-07-31T04:40:03.951Z,74.46
2022-07-31T04:42:10.720Z,74.79
2022-07-31T04:44:13.207Z,74.51
2022-07-31T04:46:17.719Z,73.87
2022-07-31T04:48:19.641Z,73.53
2022-07-31T04:50:21.431Z,73.40
2022-07-31T04:52:23.060Z,73.18
2022-07-31T04:54:24.784Z,73.41
2022-07-31T04:56:42.394Z,73.35
2022-07-31T04:58:44.040Z,73.49
2022-07-31T05:00:45.649Z,74.05
2022-07-31T05:02:47.392Z,73.58
2022-07-31T05:04:56.302Z,73.43
2022-07-31T05:06:59.024Z,72.68
2022-07-31T05:09:03.356Z,72.65
2022-07-31T05:11:23.562Z,72.28
2022-07-31T05:13:25.209Z,72.16
2022-07-31T05:15:27.424Z,71.75
2022-07-31T05:17:29.042Z,71.49
2022-07-31T05:19:30.814Z,71.54
2022-07-31T05:21:32.706Z,71.34
2022-07-31T05:23:34.963Z,71.20
2022-07-31T05:25:36.733Z,71.02
2022-07-31T05:27:39.167Z,70.56
2022-07-31T05:29:43.091Z,71.26
2022-07-31T05:32:00.555Z,71.09
2022-07-31T05:34:02.805Z,71.06
2022-07-31T05:36:05.114Z,70.75
2022-07-31T05:38:06.742Z,70.04
2022-07-31T05:40:13.780Z,70.77
2022-07-31T05:42:15.437Z,69.95
2022-07-31T05:44:17.118Z,69.66
2022-07-31T05:46:18.944Z,69.13
2022-07-31T05:48:20.762Z,69.48
2022-07-31T05:50:23.229Z,68.90
2022-07-31T05:52:24.926Z,68.37
2022-07-31T05:54:26.668Z,68.15
2022-07-31T05:56:28.358Z,67.88
2022-07-31T05:58:30.084Z,68.08
2022-07-31T06:00:32.265Z,67.91
2022-07-31T06:02:34.768Z,67.78
2022-07-31T06:04:36.457Z,67.77
2022-07-31T06:06:38.082Z,67.57
2022-07-31T06:08:39.781Z,67.20
2022-07-31T06:10:41.681Z,66.68
2022-07-31T06:12:43.385Z,66.53
2022-07-31T06:14:45.366Z,66.17
2022-07-31T06:16:49.749Z,65.75
2022-07-31T06:18:52.096Z,64.92
2022-07-31T06:20:53.770Z,65.26
2022-07-31T06:22:55.726Z,64.47
2022-07-31T06:24:57.419Z,63.81
2022-07-31T06:27:00.080Z,63.53
2022-07-31T06:29:01.709Z,63.77
2022-07-31T06:31:03.353Z,64.21
2022-07-31T06:33:08.458Z,64.06
2022-07-31T06:35:11.606Z,64.52
2022-07-31T06:37:13.269Z,64.84
2022-07-31T06:39:14.905Z,65.59
2022-07-31T06:41:34.829Z,65.67
2022-07-31T06:43:36.497Z,65.19
2022-07-31T06:45:51.079Z,65.33
2022-07-31T06:47:54.375Z,65.18
2022-07-31T06:49:56.413Z,64.83
2022-07-31T06:51:58.086Z,65.05
2022-07-31T06:54:05.303Z,64.94
2022-07-31T06:56:11.902Z,64.82
2022-07-31T06:58:13.541Z,64.66
2022-07-31T07:00:20.406Z,64.71
2022-07-31T07:02:22.615Z,64.21
2022-07-31T07:04:24.210Z,64.60
2022-07-31T07:06:45.838Z,64.16
2022-07-31T07:08:47.752Z,63.78
2022-07-31T07:10:49.456Z,63.96
2022-07-31T07:12:51.176Z,62.89
2022-07-31T07:14:52.991Z,63.74
2022-07-31T07:16:54.651Z,63.18
2022-07-31T07:18:56.291Z,65.27
2022-07-31T07:20:58.333Z,65.80
2022-07-31T07:23:00.019Z,66.98
2022-07-31T07:25:01.853Z,66.48
2022-07-31T07:27:03.613Z,65.68
2022-07-31T07:29:05.303Z,64.86
2022-07-31T07:31:07.138Z,64.91
2022-07-31T07:33:08.842Z,63.89
2022-07-31T07:35:12.559Z,63.73
2022-07-31T07:37:14.188Z,65.15
2022-07-31T07:39:15.892Z,65.23
2022-07-31T07:41:18.550Z,64.92
2022-07-31T07:43:20.720Z,64.62
2022-07-31T07:45:22.615Z,64.85
2022-07-31T07:47:24.325Z,63.98
2022-07-31T07:49:26.016Z,63.87
2022-07-31T07:51:27.845Z,64.27
2022-07-31T07:53:29.565Z,63.67
2022-07-31T07:55:37.360Z,63.63
2022-07-31T07:57:40.088Z,64.32
2022-07-31T07:59:42.460Z,64.06
2022-07-31T08:01:44.098Z,64.31
2022-07-31T08:03:48.390Z,64.86
2022-07-31T08:05:53.258Z,63.73
2022-07-31T08:07:54.962Z,64.55
2022-07-31T08:09:57.954Z,64.62
2022-07-31T08:12:00.586Z,64.35
2022-07-31T08:14:02.262Z,65.28
2022-07-31T08:16:04.239Z,66.07
2022-07-31T08:18:27.269Z,67.29
2022-07-31T08:20:30.422Z,67.63
2022-07-31T08:22:32.073Z,67.51
2022-07-31T08:24:34.103Z,66.67
2022-07-31T08:26:54.594Z,66.29
2022-07-31T08:28:56.192Z,65.89
2022-07-31T08:30:57.878Z,65.31
2022-07-31T08:32:59.484Z,64.51
2022-07-31T08:35:02.812Z,64.84
2022-07-31T08:38:01.692Z,64.69
2022-07-31T08:39:28.303Z,63.97
2022-07-31T08:41:30.354Z,64.01
2022-07-31T08:44:01.335Z,63.57
2022-07-31T08:45:54.073Z,63.77
2022-07-31T08:47:56.811Z,62.66
2022-07-31T08:49:58.914Z,62.56
2022-07-31T08:52:02.484Z,62.25
2022-07-31T08:54:10.707Z,61.79
2022-07-31T08:56:13.084Z,61.12
2022-07-31T08:58:14.770Z,60.05
2022-07-31T09:00:17.670Z,59.59
2022-07-31T09:02:19.437Z,59.20
2022-07-31T09:04:21.085Z,59.12
2022-07-31T09:06:22.753Z,59.42
2022-07-31T09:08:24.410Z,60.37
2022-07-31T09:10:27.648Z,59.75
2022-07-31T09:12:34.678Z,59.94
2022-07-31T09:14:36.791Z,59.99
2022-07-31T09:16:46.824Z,60.31
2022-07-31T09:19:02.911Z,60.84
2022-07-31T09:21:24.654Z,60.80
2022-07-31T09:23:27.832Z,60.95
2022-07-31T09:25:29.736Z,60.57
2022-07-31T09:27:31.355Z,59.72
2022-07-31T09:29:40.912Z,59.26
2022-07-31T09:31:42.618Z,59.20
2022-07-31T09:33:46.406Z,59.13
2022-07-31T09:35:52.747Z,57.56
2022-07-31T09:37:54.385Z,56.95
2022-07-31T09:39:57.325Z,56.13
2022-07-31T09:42:01.720Z,55.55
2022-07-31T09:44:18.313Z,55.90
2022-07-31T09:46:27.772Z,55.76
2022-07-31T09:48:29.931Z,55.36
2022-07-31T09:50:33.140Z,55.88
2022-07-31T09:52:35.923Z,55.21
2022-07-31T09:54:37.797Z,55.32
2022-07-31T09:56:39.442Z,55.53
2022-07-31T09:58:41.711Z,55.50
2022-07-31T10:00:43.678Z,55.04
2022-07-31T10:02:45.706Z,55.16
2022-07-31T10:04:48.626Z,55.29
2022-07-31T10:06:51.671Z,55.22
2022-07-31T10:08:54.097Z,54.91
2022-07-31T10:10:55.911Z,54.29
2022-07-31T10:13:00.411Z,54.13
2022-07-31T10:15:06.681Z,54.39
2022-07-31T10:17:09.466Z,53.04
2022-07-31T10:19:12.913Z,53.17
2022-07-31T10:21:15.971Z,51.23
2022-07-31T10:23:24.001Z,51.64
2022-07-31T10:25:28.193Z,50.75
2022-07-31T10:27:29.929Z,52.42
2022-07-31T10:29:32.898Z,53.23
2022-07-31T10:31:34.976Z,52.62
2022-07-31T10:33:45.014Z,52.08
2022-07-31T10:36:09.495Z,50.97
2022-07-31T10:38:30.537Z,51.22
2022-07-31T10:40:45.460Z,51.14
2022-07-31T10:43:13.446Z,50.49
2022-07-31T10:45:15.928Z,50.72
2022-07-31T10:47:18.670Z,49.62
2022-07-31T10:49:38.585Z,50.62
2022-07-31T10:51:50.134Z,49.45
2022-07-31T10:53:59.534Z,50.24
2022-07-31T10:56:04.063Z,49.96
2022-07-31T10:58:10.941Z,49.95
2022-07-31T11:00:17.370Z,50.39
2022-07-31T11:02:32.255Z,49.66
2022-07-31T11:04:33.988Z,50.82
2022-07-31T11:06:44.504Z,50.14
2022-07-31T11:08:48.247Z,49.40
2022-07-31T11:10:52.145Z,48.32
2022-07-31T11:13:05.103Z,48.42
2022-07-31T11:15:18.505Z,49.41
2022-07-31T11:18:22.429Z,50.80
2022-07-31T11:19:52.845Z,50.79
2022-07-31T11:21:57.362Z,52.25
2022-07-31T11:24:04.260Z,52.72
2022-07-31T11:26:08.874Z,52.21
2022-07-31T11:28:21.395Z,51.29
2022-07-31T11:30:23.088Z,52.20
2022-07-31T11:32:25.875Z,51.06
2022-07-31T11:34:27.992Z,50.72
2022-07-31T11:36:30.006Z,50.35
2022-07-31T11:38:31.676Z,50.67
2022-07-31T11:40:33.408Z,49.93
2022-07-31T11:42:42.569Z,50.22
2022-07-31T11:44:44.239Z,50.16
2022-07-31T11:46:45.950Z,51.35
2022-07-31T11:48:47.615Z,51.73
2022-07-31T11:50:50.595Z,50.38
2022-07-31T11:53:02.503Z,49.86
2022-07-31T11:55:09.838Z,49.94
2022-07-31T11:57:11.688Z,49.59
2022-07-31T11:59:42.737Z,49.05
2022-07-31T12:01:35.059Z,47.36
2022-07-31T12:03:38.147Z,48.28
2022-07-31T12:05:45.240Z,48.66
2022-07-31T12:07:46.952Z,47.94
2022-07-31T12:10:01.779Z,48.97
2022-07-31T12:12:05.919Z,48.37
2022-07-31T12:14:08.155Z,49.23
2022-07-31T12:16:11.311Z,48.75
2022-07-31T12:18:13.031Z,48.14
2022-07-31T12:20:29.796Z,47.29
2022-07-31T12:22:36.822Z,46.88
2022-07-31T12:24:39.524Z,47.14
2022-07-31T12:26:44.413Z,46.84
2022-07-31T12:29:16.321Z,46.18
2022-07-31T12:31:18.144Z,47.23
2022-07-31T12:33:19.757Z,46.84
2022-07-31T12:35:21.434Z,46.05
2022-07-31T12:37:23.159Z,45.48
2022-07-31T12:39:24.882Z,46.33
2022-07-31T12:41:46.534Z,45.33
2022-07-31T12:43:50.132Z,44.39
2022-07-31T12:45:54.345Z,44.18
2022-07-31T12:47:56.305Z,43.34
2022-07-31T12:49:58.734Z,44.66
2022-07-31T12:52:00.376Z,44.82
2022-07-31T12:54:05.729Z,44.85
2022-07-31T12:56:11.758Z,45.22
2022-07-31T12:58:13.404Z,45.12
2022-07-31T13:00:16.046Z,45.14
2022-07-31T13:02:17.827Z,44.47
2022-07-31T13:04:19.758Z,44.41
2022-07-31T13:06:22.568Z,43.63
2022-07-31T13:08:24.219Z,44.14
2022-07-31T13:10:31.810Z,46.04
2022-07-31T13:12:34.643Z,46.24
2022-07-31T13:14:36.381Z,47.03
2022-07-31T13:16:38.129Z,46.81
2022-07-31T13:18:40.057Z,46.91
2022-07-31T13:20:41.716Z,46.65
2022-07-31T13:22:43.368Z,46.16
2022-07-31T13:24:44.996Z,46.34
2022-07-31T13:26:47.356Z,46.02
2022-07-31T13:28:49.044Z,45.24
2022-07-31T13:30:54.947Z,44.68
2022-07-31T13:32:56.947Z,44.77
2022-07-31T13:35:25.886Z,44.24
2022-07-31T13:37:20.530Z,44.17
2022-07-31T13:39:22.387Z,43.45
2022-07-31T13:41:24.245Z,43.21
2022-07-31T13:43:25.910Z,42.93
2022-07-31T13:45:27.546Z,43.21
2022-07-31T13:47:51.576Z,43.42
2022-07-31T13:49:50.859Z,44.11
2022-07-31T13:51:52.495Z,43.25
2022-07-31T13:53:54.128Z,44.25
2022-07-31T13:55:56.680Z,44.13
2022-07-31T13:58:01.000Z,43.95
2022-07-31T14:00:03.670Z,43.11
2022-07-31T14:02:05.831Z,42.94
2022-07-31T14:04:07.600Z,42.27
2022-07-31T14:06:09.440Z,42.56
2022-07-31T14:08:30.533Z,40.88
2022-07-31T14:10:32.901Z,41.32
2022-07-31T14:12:37.267Z,40.98
2022-07-31T14:14:38.910Z,41.02
2022-07-31T14:16:42.073Z,41.75
2022-07-31T14:18:43.726Z,41.85
2022-07-31T14:20:46.274Z,41.06
2022-07-31T14:22:48.048Z,40.59
2022-07-31T14:24:51.281Z,40.27
2022-07-31T14:26:53.042Z,40.06
2022-07-31T14:28:54.713Z,39.93
2022-07-31T14:30:56.360Z,39.97
2022-07-31T14:32:58.210Z,39.77
2022-07-31T14:35:02.364Z,39.63
2022-07-31T14:37:06.661Z,39.63
2022-07-31T14:39:08.480Z,40.35
2022-07-31T14:41:10.126Z,41.09
2022-07-31T14:43:12.608Z,41.41
2022-07-31T14:45:15.047Z,42.04
2022-07-31T14:47:17.111Z,41.40
2022-07-31T14:49:18.764Z,41.38
2022-07-31T14:51:20.535Z,40.88
2022-07-31T14:53:22.278Z,40.27
2022-07-31T14:55:25.324Z,39.23
2022-07-31T14:57:31.605Z,38.13
2022-07-31T14:59:33.342Z,38.61
2022-07-31T15:01:35.021Z,38.71
2022-07-31T15:03:36.845Z,38.41
2022-07-31T15:06:41.397Z,38.39
2022-07-31T15:08:03.659Z,38.40
2022-07-31T15:10:06.556Z,38.04
2022-07-31T15:12:08.809Z,39.13
2022-07-31T15:14:10.487Z,39.22
2022-07-31T15:16:12.131Z,39.13
2022-07-31T15:18:13.806Z,38.61
2022-07-31T15:20:15.680Z,38.50
2022-07-31T15:22:19.246Z,38.98
2022-07-31T15:24:20.958Z,38.68
2022-07-31T15:26:22.715Z,38.65
2022-07-31T15:28:24.372Z,37.94
2022-07-31T15:30:26.042Z,39.18
2022-07-31T15:32:27.789Z,38.37
2022-07-31T15:34:29.567Z,38.54
2022-07-31T15:36:31.232Z,38.07
2022-07-31T15:38:32.978Z,37.38
2022-07-31T15:40:35.219Z,37.41
2022-07-31T15:42:40.489Z,38.41
2022-07-31T15:44:42.399Z,39.40
2022-07-31T15:46:44.080Z,39.51
2022-07-31T15:48:45.863Z,39.68
2022-07-31T15:50:47.538Z,39.80
2022-07-31T15:52:50.143Z,39.50
2022-07-31T15:54:52.845Z,39.02
2022-07-31T15:56:54.667Z,39.44
2022-07-31T15:58:56.729Z,38.94
2022-07-31T16:00:58.718Z,39.29
2022-07-31T16:03:01.452Z,38.42
2022-07-31T16:05:11.800Z,38.20
2022-07-31T16:08:32.999Z,38.16
2022-07-31T16:10:03.993Z,38.59
2022-07-31T16:12:06.835Z,38.37
2022-07-31T16:14:10.428Z,38.50
2022-07-31T16:16:12.025Z,38.18
2022-07-31T16:18:18.106Z,38.01
2022-07-31T16:20:26.677Z,37.96
2022-07-31T16:22:28.708Z,38.57
2022-07-31T16:24:30.387Z,38.61
2022-07-31T16:26:33.466Z,38.80
2022-07-31T16:28:35.079Z,38.54
2022-07-31T16:30:36.885Z,38.73
2022-07-31T16:32:38.552Z,38.85
2022-07-31T16:34:40.951Z,38.75
2022-07-31T16:36:44.182Z,38.62
2022-07-31T16:38:59.470Z,38.54
2022-07-31T16:41:07.452Z,38.30
2022-07-31T16:43:50.091Z,38.26
2022-07-31T16:45:30.936Z,38.31
2022-07-31T16:47:51.200Z,39.59
2022-07-31T16:49:54.078Z,39.97
2022-07-31T16:51:55.733Z,40.20
2022-07-31T16:54:13.452Z,39.32
2022-07-31T16:56:18.043Z,39.22
2022-07-31T16:58:24.667Z,39.49
2022-07-31T17:00:26.726Z,39.33
2022-07-31T17:02:28.459Z,38.69
2022-07-31T17:04:30.146Z,38.88
2022-07-31T17:06:36.367Z,38.66
2022-07-31T17:08:39.272Z,39.22
2022-07-31T17:10:41.120Z,39.34
2022-07-31T17:12:42.878Z,39.09
2022-07-31T17:14:44.585Z,39.88
2022-07-31T17:16:49.320Z,39.95
2022-07-31T17:18:52.555Z,40.60
2022-07-31T17:20:56.866Z,40.50
2022-07-31T17:22:58.905Z,40.81
2022-07-31T17:25:01.804Z,40.59
2022-07-31T17:27:05.553Z,40.74
2022-07-31T17:29:07.491Z,40.94
2022-07-31T17:31:09.168Z,41.50
2022-07-31T17:33:12.042Z,41.35
2022-07-31T17:35:13.778Z,41.82
2022-07-31T17:37:19.223Z,42.07
2022-07-31T17:39:20.906Z,42.32
2022-07-31T17:41:25.348Z,42.43
2022-07-31T17:43:27.909Z,42.96
2022-07-31T17:45:59.580Z,43.62
2022-07-31T17:48:08.507Z,43.96
2022-07-31T17:50:10.246Z,44.18
2022-07-31T17:52:12.457Z,44.53
2022-07-31T17:54:14.428Z,44.93
2022-07-31T17:56:16.494Z,45.33
2022-07-31T17:58:18.158Z,45.49
2022-07-31T18:00:19.875Z,45.57
2022-07-31T18:02:21.777Z,45.45
2022-07-31T18:04:23.451Z,45.17
2022-07-31T18:06:25.358Z,45.23
2022-07-31T18:08:29.294Z,45.72
2022-07-31T18:10:53.055Z,45.63
2022-07-31T18:12:57.508Z,45.52
2022-07-31T18:14:59.898Z,45.73
2022-07-31T18:17:02.109Z,45.54
2022-07-31T18:19:03.790Z,45.67
2022-07-31T18:21:05.484Z,45.92
2022-07-31T18:23:10.139Z,46.04
2022-07-31T18:25:12.303Z,46.12
2022-07-31T18:27:14.039Z,46.03
2022-07-31T18:29:17.125Z,46.09
2022-07-31T18:31:34.656Z,46.17
2022-07-31T18:33:42.526Z,46.28
2022-07-31T18:35:44.744Z,46.58
2022-07-31T18:37:46.669Z,46.90
2022-07-31T18:39:49.386Z,47.18
2022-07-31T18:41:51.360Z,47.34
2022-07-31T18:43:53.095Z,47.47
2022-07-31T18:45:54.814Z,47.63
2022-07-31T18:47:56.493Z,47.54
2022-07-31T18:50:59.712Z,47.45
2022-07-31T18:52:20.031Z,47.89
2022-07-31T18:54:21.698Z,48.29
2022-07-31T18:56:24.618Z,48.37
2022-07-31T18:58:26.366Z,48.46
2022-07-31T19:00:28.620Z,48.50
2022-07-31T19:02:30.417Z,48.91
2022-07-31T19:04:32.155Z,49.10
2022-07-31T19:06:33.833Z,48.89
2022-07-31T19:08:35.481Z,49.13
2022-07-31T19:10:38.258Z,48.92
2022-07-31T19:12:40.016Z,48.99
2022-07-31T19:14:41.719Z,49.53
2022-07-31T19:16:43.874Z,49.29
2022-07-31T19:18:50.225Z,49.38
2022-07-31T19:21:00.103Z,49.14
2022-07-31T19:23:14.393Z,49.30
2022-07-31T19:25:16.028Z,49.18
2022-07-31T19:27:18.459Z,49.13
2022-07-31T19:29:20.746Z,49.23
2022-07-31T19:31:22.761Z,48.95
2022-07-31T19:33:24.832Z,48.89
2022-07-31T19:35:26.598Z,48.87
2022-07-31T19:37:28.283Z,48.84
2022-07-31T19:39:29.977Z,49.29
2022-07-31T19:41:33.328Z,49.00
2022-07-31T19:43:35.899Z,48.81
2022-07-31T19:45:37.590Z,49.09
2022-07-31T19:47:59.366Z,49.11
2022-07-31T19:50:01.341Z,49.55
2022-07-31T19:52:03.270Z,49.54
2022-07-31T19:54:05.255Z,49.86
2022-07-31T19:56:07.023Z,49.70
2022-07-31T19:58:08.761Z,49.76
2022-07-31T20:00:12.629Z,49.64
2022-07-31T20:02:16.982Z,49.68
2022-07-31T20:04:18.843Z,49.64
2022-07-31T20:06:20.565Z,49.97
2022-07-31T20:08:23.048Z,49.65
2022-07-31T20:10:25.439Z,49.81
2022-07-31T20:12:27.125Z,49.55
2022-07-31T20:14:28.761Z,49.56
2022-07-31T20:16:30.879Z,49.53
2022-07-31T20:18:32.694Z,49.27
2022-07-31T20:20:34.354Z,49.53
2022-07-31T20:22:35.959Z,49.70
2022-07-31T20:24:38.709Z,49.20
2022-07-31T20:26:40.355Z,49.46
2022-07-31T20:28:42.570Z,49.12
2022-07-31T20:30:44.295Z,48.98
2022-07-31T20:32:48.366Z,48.95
2022-07-31T20:34:50.418Z,48.98
2022-07-31T20:36:52.862Z,49.09
2022-07-31T20:38:55.676Z,49.04
2022-07-31T20:40:57.327Z,49.07
2022-07-31T20:42:59.096Z,48.75
2022-07-31T20:45:00.742Z,48.52
2022-07-31T20:47:02.360Z,48.57
2022-07-31T20:49:04.220Z,48.01
2022-07-31T20:51:09.136Z,47.87
2022-07-31T20:53:10.773Z,48.27
2022-07-31T20:55:12.458Z,48.34
2022-07-31T20:57:15.760Z,48.04
2022-07-31T20:59:17.505Z,48.15
2022-07-31T21:01:21.354Z,48.24
2022-07-31T21:03:23.129Z,48.25
2022-07-31T21:05:29.270Z,48.04
2022-07-31T21:07:30.995Z,48.26
2022-07-31T21:09:33.079Z,48.43
2022-07-31T21:11:34.681Z,48.19
2022-07-31T21:13:36.413Z,48.33
2022-07-31T21:15:43.229Z,48.87
2022-07-31T21:17:46.240Z,48.41
2022-07-31T21:19:47.984Z,48.77
2022-07-31T21:21:51.134Z,48.47
2022-07-31T21:23:52.883Z,48.08
2022-07-31T21:25:57.207Z,48.12
2022-07-31T21:27:59.208Z,47.95
2022-07-31T21:30:01.217Z,48.08
2022-07-31T21:32:03.288Z,48.22
2022-07-31T21:34:05.364Z,47.56
2022-07-31T21:36:07.485Z,47.49
2022-07-31T21:38:14.735Z,48.03
2022-07-31T21:40:16.876Z,47.29
2022-07-31T21:42:19.029Z,47.89
2022-07-31T21:44:20.843Z,47.50
2022-07-31T21:46:24.237Z,47.73
2022-07-31T21:48:27.265Z,48.49
2022-07-31T21:50:29.531Z,48.27
2022-07-31T21:52:31.269Z,48.09
2022-07-31T21:54:32.993Z,48.58
2022-07-31T21:56:34.782Z,48.37
2022-07-31T21:58:36.960Z,48.85
2022-07-31T22:00:38.707Z,48.20
2022-07-31T22:02:43.024Z,48.36
2022-07-31T22:05:03.411Z,48.11
2022-07-31T22:07:23.854Z,48.23
2022-07-31T22:09:26.581Z,48.56
2022-07-31T22:11:28.372Z,48.17
2022-07-31T22:13:30.020Z,48.03
2022-07-31T22:15:50.443Z,48.09
2022-07-31T22:17:53.517Z,48.43
2022-07-31T22:19:58.647Z,48.71
2022-07-31T22:22:01.156Z,49.08
2022-07-31T22:24:03.694Z,49.31
2022-07-31T22:26:05.594Z,49.88
2022-07-31T22:28:07.671Z,50.02
2022-07-31T22:30:10.649Z,50.22
2022-07-31T22:32:12.499Z,50.70
2022-07-31T22:34:14.273Z,50.47
2022-07-31T22:36:35.935Z,50.40
2022-07-31T22:38:38.207Z,49.80
2022-07-31T22:40:44.015Z,49.94
2022-07-31T22:42:57.505Z,49.81
2022-07-31T22:45:00.095Z,49.48
2022-07-31T22:47:01.929Z,49.76
2022-07-31T22:49:06.138Z,49.60
2022-07-31T22:51:08.935Z,49.19
2022-07-31T22:53:12.288Z,49.09
2022-07-31T22:55:14.139Z,48.99
2022-07-31T22:57:16.384Z,49.35
2022-07-31T22:59:18.283Z,48.89
2022-07-31T23:01:19.880Z,49.10
2022-07-31T23:03:21.480Z,48.94
2022-07-31T23:05:23.253Z,49.10
2022-07-31T23:07:24.926Z,48.87
2022-07-31T23:09:26.606Z,48.90
2022-07-31T23:11:28.335Z,49.44
2022-07-31T23:13:30.070Z,49.28
2022-07-31T23:15:31.815Z,49.33
2022-07-31T23:17:33.488Z,49.65
2022-07-31T23:19:35.142Z,49.82
2022-07-31T23:21:36.877Z,49.55
2022-07-31T23:23:38.521Z,49.57
2022-07-31T23:25:40.155Z,49.63
2022-07-31T23:27:41.812Z,49.67
2022-07-31T23:29:43.469Z,49.74
2022-07-31T23:31:45.122Z,49.58
2022-07-31T23:33:47.427Z,50.05
2022-07-31T23:35:49.071Z,49.74
2022-07-31T23:37:50.747Z,49.61
2022-07-31T23:39:52.432Z,49.48
2022-07-31T23:42:12.945Z,49.34
2022-07-31T23:44:17.744Z,49.92
2022-07-31T23:46:26.896Z,49.50
2022-07-31T23:48:29.930Z,49.14
2022-07-31T23:50:32.003Z,49.19
2022-07-31T23:52:33.583Z,49.31
2022-07-31T23:54:35.178Z,49.03
2022-07-31T23:56:36.948Z,49.08
2022-07-31T23:58:38.588Z,48.69
